createdAt,value
2018-08-30T00:00:42.968Z,7.13
2018-08-30T00:03:10.688Z,7.23
2018-08-30T00:05:38.347Z,6.90
2018-08-30T00:08:05.967Z,7.78
2018-08-30T00:10:33.747Z,7.35
2018-08-30T00:13:01.383Z,8.07
2018-08-30T00:15:29.014Z,7.43
2018-08-30T00:17:56.673Z,7.33
2018-08-30T00:20:24.297Z,7.07
2018-08-30T00:22:51.915Z,7.10
2018-08-30T00:25:19.652Z,7.70
2018-08-30T00:27:47.330Z,8.67
2018-08-30T00:30:15.203Z,7.80
2018-08-30T00:32:42.866Z,7.23
2018-08-30T00:35:10.495Z,8.03
2018-08-30T00:37:38.150Z,7.70
2018-08-30T00:40:05.973Z,8.13
2018-08-30T00:42:33.647Z,8.10
2018-08-30T00:45:01.347Z,7.70
2018-08-30T00:47:29.001Z,8.48
2018-08-30T00:49:56.607Z,8.23
2018-08-30T00:52:24.252Z,7.77
2018-08-30T00:54:51.919Z,7.90
2018-08-30T00:57:19.544Z,8.30
2018-08-30T00:59:47.427Z,8.53
2018-08-30T01:02:15.167Z,8.45
2018-08-30T01:04:42.861Z,9.13
2018-08-30T01:07:10.493Z,10.80
2018-08-30T01:09:38.252Z,7.60
2018-08-30T01:12:05.982Z,8.17
2018-08-30T01:14:33.632Z,8.50
2018-08-30T01:17:01.286Z,7.90
2018-08-30T01:19:28.934Z,7.87
2018-08-30T01:21:56.580Z,7.73
2018-08-30T01:24:24.299Z,8.23
2018-08-30T01:26:51.928Z,8.77
2018-08-30T01:29:19.561Z,8.63
2018-08-30T01:31:47.296Z,8.27
2018-08-30T01:34:14.928Z,8.07
2018-08-30T01:36:43.578Z,22.75
2018-08-30T01:39:11.477Z,9.50
2018-08-30T01:41:39.803Z,9.00
2018-08-30T01:44:07.403Z,8.43
2018-08-30T01:46:35.059Z,8.83
2018-08-30T01:49:02.757Z,8.47
2018-08-30T01:51:30.493Z,8.63
2018-08-30T01:53:58.199Z,8.43
2018-08-30T01:56:25.819Z,8.10
2018-08-30T01:58:53.464Z,8.80
2018-08-30T02:01:21.088Z,8.83
2018-08-30T02:03:49.077Z,8.10
2018-08-30T02:06:16.713Z,8.43
2018-08-30T02:08:44.358Z,7.93
2018-08-30T02:11:12.004Z,8.90
2018-08-30T02:13:39.703Z,8.13
2018-08-30T02:16:07.495Z,8.30
2018-08-30T02:18:35.131Z,8.47
2018-08-30T02:21:02.764Z,8.13
2018-08-30T02:23:30.409Z,8.15
2018-08-30T02:25:58.063Z,7.37
2018-08-30T02:28:25.705Z,7.87
2018-08-30T02:30:53.363Z,7.93
2018-08-30T02:33:21.066Z,7.83
2018-08-30T02:35:48.768Z,7.30
2018-08-30T02:38:16.520Z,8.10
2018-08-30T02:40:44.144Z,8.33
2018-08-30T02:43:11.791Z,7.77
2018-08-30T02:45:39.450Z,7.73
2018-08-30T02:48:07.479Z,7.33
2018-08-30T02:50:35.120Z,7.10
2018-08-30T02:53:03.376Z,7.20
2018-08-30T02:55:31.041Z,7.07
2018-08-30T02:57:58.794Z,11.03
2018-08-30T03:00:26.477Z,7.97
2018-08-30T03:02:54.099Z,6.83
2018-08-30T03:05:21.719Z,7.23
2018-08-30T03:07:49.370Z,6.27
2018-08-30T03:10:16.980Z,6.77
2018-08-30T03:12:44.595Z,6.25
2018-08-30T03:15:13.821Z,6.47
2018-08-30T03:17:41.526Z,6.67
2018-08-30T03:20:10.643Z,7.08
2018-08-30T03:22:39.271Z,7.73
2018-08-30T03:25:07.196Z,8.00
2018-08-30T03:27:34.807Z,7.00
2018-08-30T03:30:02.770Z,7.58
2018-08-30T03:32:30.388Z,8.53
2018-08-30T03:34:58.438Z,7.08
2018-08-30T03:37:26.164Z,7.47
2018-08-30T03:39:53.771Z,7.65
2018-08-30T03:42:21.455Z,8.23
2018-08-30T03:44:49.118Z,7.57
2018-08-30T03:47:16.709Z,8.07
2018-08-30T03:49:44.316Z,7.70
2018-08-30T03:52:12.051Z,7.60
2018-08-30T03:54:39.767Z,7.60
2018-08-30T03:57:07.400Z,7.13
2018-08-30T03:59:35.047Z,8.60
2018-08-30T04:02:03.333Z,7.87
2018-08-30T04:04:30.975Z,8.20
2018-08-30T04:06:58.759Z,7.37
2018-08-30T04:09:26.402Z,7.53
2018-08-30T04:11:54.091Z,7.80
2018-08-30T04:14:21.744Z,7.53
2018-08-30T04:16:49.399Z,8.00
2018-08-30T04:19:17.020Z,7.97
2018-08-30T04:21:44.729Z,7.47
2018-08-30T04:24:12.419Z,8.03
2018-08-30T04:26:40.034Z,7.07
2018-08-30T04:29:07.699Z,8.27
2018-08-30T04:31:35.424Z,7.07
2018-08-30T04:34:03.025Z,7.58
2018-08-30T04:36:30.759Z,7.58
2018-08-30T04:38:58.404Z,7.47
2018-08-30T04:41:26.499Z,7.17
2018-08-30T04:43:54.182Z,7.40
2018-08-30T04:46:21.897Z,6.93
2018-08-30T04:48:49.519Z,6.43
2018-08-30T04:51:17.242Z,6.77
2018-08-30T04:53:44.884Z,6.10
2018-08-30T04:56:12.503Z,6.60
2018-08-30T04:58:40.174Z,6.27
2018-08-30T05:01:07.872Z,6.12
2018-08-30T05:03:35.484Z,5.83
2018-08-30T05:06:03.203Z,5.57
2018-08-30T05:08:30.845Z,5.47
2018-08-30T05:10:58.486Z,5.20
2018-08-30T05:13:26.152Z,5.70
2018-08-30T05:15:53.818Z,5.27
2018-08-30T05:18:21.450Z,6.30
2018-08-30T05:20:49.143Z,5.60
2018-08-30T05:23:16.772Z,6.27
2018-08-30T05:25:44.408Z,5.15
2018-08-30T05:28:12.055Z,6.10
2018-08-30T05:30:39.702Z,6.20
2018-08-30T05:33:07.504Z,6.62
2018-08-30T05:35:35.164Z,5.55
2018-08-30T05:38:02.832Z,6.40
2018-08-30T05:40:30.479Z,6.23
2018-08-30T05:42:58.115Z,5.93
2018-08-30T05:45:25.750Z,6.37
2018-08-30T05:47:53.390Z,7.55
2018-08-30T05:50:21.110Z,6.30
2018-08-30T05:52:48.711Z,5.80
2018-08-30T05:55:16.351Z,5.70
2018-08-30T05:57:44.022Z,6.15
2018-08-30T06:00:11.874Z,6.30
2018-08-30T06:02:39.487Z,5.90
2018-08-30T06:05:07.186Z,6.20
2018-08-30T06:07:34.812Z,6.10
2018-08-30T06:10:02.472Z,5.80
2018-08-30T06:12:30.138Z,6.90
2018-08-30T06:14:57.782Z,6.80
2018-08-30T06:17:25.701Z,7.10
2018-08-30T06:19:53.430Z,6.13
2018-08-30T06:22:21.317Z,6.50
2018-08-30T06:24:48.911Z,6.87
2018-08-30T06:27:16.574Z,6.72
2018-08-30T06:29:44.179Z,6.07
2018-08-30T06:32:11.915Z,6.40
2018-08-30T06:34:39.590Z,7.07
2018-08-30T06:37:07.335Z,6.67
2018-08-30T06:39:34.993Z,5.62
2018-08-30T06:42:02.663Z,5.73
2018-08-30T06:44:30.557Z,6.23
2018-08-30T06:46:58.226Z,6.20
2018-08-30T06:49:25.876Z,6.40
2018-08-30T06:51:53.515Z,6.15
2018-08-30T06:54:21.152Z,5.93
2018-08-30T06:56:48.821Z,5.93
2018-08-30T06:59:16.439Z,5.77
2018-08-30T07:01:44.059Z,5.50
2018-08-30T07:04:11.768Z,6.00
2018-08-30T07:06:39.398Z,5.47
2018-08-30T07:09:08.893Z,5.90
2018-08-30T07:11:36.562Z,5.20
2018-08-30T07:14:04.612Z,4.83
2018-08-30T07:16:32.230Z,4.17
2018-08-30T07:19:00.094Z,5.67
2018-08-30T07:21:27.721Z,5.55
2018-08-30T07:23:55.800Z,7.33
2018-08-30T07:26:23.480Z,8.00
2018-08-30T07:28:51.075Z,7.33
2018-08-30T07:31:18.710Z,7.90
2018-08-30T07:33:46.353Z,8.17
2018-08-30T07:36:13.970Z,8.18
2018-08-30T07:38:41.607Z,8.73
2018-08-30T07:41:09.254Z,9.33
2018-08-30T07:43:36.864Z,8.93
2018-08-30T07:46:04.488Z,10.60
2018-08-30T07:48:32.149Z,9.23
2018-08-30T07:50:59.858Z,9.23
2018-08-30T07:53:27.714Z,10.20
2018-08-30T07:55:55.450Z,10.03
2018-08-30T07:58:23.084Z,10.53
2018-08-30T08:00:50.705Z,10.37
2018-08-30T08:03:19.292Z,10.80
2018-08-30T08:05:46.941Z,11.73
2018-08-30T08:08:14.678Z,11.53
2018-08-30T08:10:42.370Z,16.60
2018-08-30T08:13:10.006Z,14.30
2018-08-30T08:15:37.687Z,12.93
2018-08-30T08:18:05.439Z,14.47
2018-08-30T08:20:33.060Z,13.73
2018-08-30T08:23:00.706Z,16.07
2018-08-30T08:25:28.922Z,16.17
2018-08-30T08:27:56.636Z,16.17
2018-08-30T08:30:24.274Z,16.07
2018-08-30T08:32:52.008Z,16.07
2018-08-30T08:35:19.686Z,17.90
2018-08-30T08:37:47.290Z,19.50
2018-08-30T08:40:15.089Z,18.50
2018-08-30T08:42:42.835Z,17.67
2018-08-30T08:45:10.491Z,19.15
2018-08-30T08:47:38.187Z,19.70
2018-08-30T08:50:05.883Z,19.33
2018-08-30T08:52:33.519Z,20.00
2018-08-30T08:55:01.232Z,19.02
2018-08-30T08:57:28.866Z,20.20
2018-08-30T08:59:56.500Z,19.87
2018-08-30T09:02:24.271Z,19.90
2018-08-30T09:04:51.915Z,21.20
2018-08-30T09:07:19.564Z,19.32
2018-08-30T09:09:47.249Z,19.10
2018-08-30T09:12:14.897Z,19.57
2018-08-30T09:14:42.523Z,20.17
2018-08-30T09:17:10.313Z,18.43
2018-08-30T09:19:37.936Z,18.37
2018-08-30T09:22:05.703Z,20.97
2018-08-30T09:24:33.364Z,19.50
2018-08-30T09:27:01.026Z,20.12
2018-08-30T09:29:28.656Z,18.75
2018-08-30T09:31:56.304Z,19.47
2018-08-30T09:34:23.907Z,19.30
2018-08-30T09:36:51.564Z,20.40
2018-08-30T09:39:19.210Z,21.35
2018-08-30T09:41:46.816Z,18.95
2018-08-30T09:44:14.419Z,19.37
2018-08-30T09:46:42.076Z,17.10
2018-08-30T09:49:09.753Z,16.60
2018-08-30T09:51:37.359Z,15.90
2018-08-30T09:54:05.160Z,17.10
2018-08-30T09:56:32.782Z,15.07
2018-08-30T09:59:00.416Z,13.28
2018-08-30T10:01:33.541Z,14.70
2018-08-30T10:04:01.123Z,14.07
2018-08-30T10:06:28.923Z,13.38
2018-08-30T10:08:56.823Z,12.23
2018-08-30T10:11:24.430Z,12.13
2018-08-30T10:13:52.013Z,11.75
2018-08-30T10:16:19.625Z,12.37
2018-08-30T10:18:47.275Z,11.47
2018-08-30T10:21:14.879Z,10.97
2018-08-30T10:23:42.581Z,10.80
2018-08-30T10:26:10.155Z,9.47
2018-08-30T10:28:37.772Z,9.03
2018-08-30T10:31:05.687Z,7.97
2018-08-30T10:33:33.324Z,7.73
2018-08-30T10:36:00.938Z,6.05
2018-08-30T10:38:28.573Z,4.93
2018-08-30T10:40:56.180Z,4.10
2018-08-30T10:43:23.786Z,3.35
2018-08-30T10:45:51.424Z,2.83
2018-08-30T10:48:19.040Z,2.80
2018-08-30T10:50:46.676Z,3.10
2018-08-30T10:53:14.341Z,3.20
2018-08-30T10:55:42.025Z,3.50
2018-08-30T10:58:09.643Z,3.50
2018-08-30T11:00:37.344Z,4.63
2018-08-30T11:03:05.037Z,5.30
2018-08-30T11:05:33.115Z,5.25
2018-08-30T11:08:01.340Z,4.67
2018-08-30T11:10:28.943Z,5.40
2018-08-30T11:12:56.638Z,5.63
2018-08-30T11:15:24.249Z,5.10
2018-08-30T11:17:52.562Z,5.73
2018-08-30T11:20:20.208Z,5.87
2018-08-30T11:22:47.879Z,5.53
2018-08-30T11:25:15.506Z,6.30
2018-08-30T11:27:43.174Z,4.73
2018-08-30T11:30:10.779Z,5.30
2018-08-30T11:32:38.430Z,5.93
2018-08-30T11:35:06.332Z,5.60
2018-08-30T11:37:34.059Z,5.78
2018-08-30T11:40:01.645Z,5.12
2018-08-30T11:42:29.256Z,5.50
2018-08-30T11:44:56.882Z,5.13
2018-08-30T11:47:24.569Z,5.43
2018-08-30T11:49:52.258Z,5.37
2018-08-30T11:52:20.020Z,5.40
2018-08-30T11:54:47.586Z,5.20
2018-08-30T11:57:15.191Z,5.30
2018-08-30T11:59:42.810Z,5.17
2018-08-30T12:02:10.516Z,4.53
2018-08-30T12:04:38.825Z,4.33
2018-08-30T12:07:06.573Z,4.03
2018-08-30T12:09:34.239Z,3.67
2018-08-30T12:12:01.941Z,3.80
2018-08-30T12:14:29.578Z,2.40
2018-08-30T12:16:57.205Z,2.40
2018-08-30T12:19:24.793Z,2.40
2018-08-30T12:21:52.431Z,1.90
2018-08-30T12:24:20.039Z,2.10
2018-08-30T12:26:47.802Z,1.97
2018-08-30T12:29:15.619Z,1.97
2018-08-30T12:31:43.359Z,1.73
2018-08-30T12:34:11.088Z,1.72
2018-08-30T12:36:38.785Z,1.90
2018-08-30T12:39:07.917Z,1.60
2018-08-30T12:41:35.536Z,1.87
2018-08-30T12:44:03.190Z,1.70
2018-08-30T12:46:30.840Z,1.70
2018-08-30T12:48:58.583Z,1.60
2018-08-30T12:51:26.409Z,2.03
2018-08-30T12:53:53.975Z,1.80
2018-08-30T12:56:21.608Z,1.83
2018-08-30T12:58:53.809Z,2.10
2018-08-30T13:01:21.436Z,2.03
2018-08-30T13:03:49.044Z,2.50
2018-08-30T13:06:16.723Z,2.08
2018-08-30T13:08:44.451Z,2.43
2018-08-30T13:11:12.106Z,2.13
2018-08-30T13:13:39.742Z,2.10
2018-08-30T13:16:07.336Z,2.67
2018-08-30T13:18:34.928Z,2.22
2018-08-30T13:21:02.661Z,2.23
2018-08-30T13:23:30.300Z,2.63
2018-08-30T13:25:57.932Z,2.70
2018-08-30T13:28:25.636Z,2.85
2018-08-30T13:30:53.411Z,2.47
2018-08-30T13:33:21.186Z,2.57
2018-08-30T13:35:48.644Z,2.17
2018-08-30T13:38:16.575Z,2.83
2018-08-30T13:40:44.174Z,2.60
2018-08-30T13:43:11.935Z,2.50
2018-08-30T13:45:39.578Z,2.83
2018-08-30T13:48:07.527Z,3.13
2018-08-30T13:50:35.190Z,3.20
2018-08-30T13:53:02.775Z,3.37
2018-08-30T13:55:30.516Z,3.08
2018-08-30T13:57:58.282Z,3.60
2018-08-30T14:00:26.040Z,3.30
2018-08-30T14:02:53.248Z,3.77
2018-08-30T14:05:20.968Z,4.47
2018-08-30T14:07:48.615Z,4.37
2018-08-30T14:10:16.352Z,4.97
2018-08-30T14:12:44.052Z,5.37
2018-08-30T14:15:11.571Z,5.00
2018-08-30T14:17:38.837Z,5.47
2018-08-30T14:20:06.599Z,5.70
2018-08-30T14:22:34.229Z,5.40
2018-08-30T14:25:01.834Z,4.75
2018-08-30T14:27:29.470Z,5.90
2018-08-30T14:29:57.066Z,6.10
2018-08-30T14:32:24.765Z,6.57
2018-08-30T14:34:52.410Z,6.95
2018-08-30T14:37:19.997Z,5.43
2018-08-30T14:39:47.599Z,5.35
2018-08-30T14:42:15.249Z,5.72
2018-08-30T14:44:42.855Z,5.20
2018-08-30T14:47:10.608Z,5.63
2018-08-30T14:49:38.135Z,6.07
2018-08-30T14:52:05.778Z,5.62
2018-08-30T14:54:33.483Z,5.43
2018-08-30T14:57:01.043Z,7.77
2018-08-30T14:59:28.664Z,6.07
2018-08-30T15:01:56.263Z,5.85
2018-08-30T15:04:23.886Z,5.83
2018-08-30T15:06:51.479Z,6.00
2018-08-30T15:09:19.171Z,7.20
2018-08-30T15:11:46.791Z,6.67
2018-08-30T15:14:14.445Z,6.77
2018-08-30T15:16:42.049Z,18.27
2018-08-30T15:19:09.736Z,6.70
2018-08-30T15:21:37.335Z,6.93
2018-08-30T15:24:04.971Z,7.67
2018-08-30T15:26:32.645Z,7.40
2018-08-30T15:29:00.337Z,8.43
2018-08-30T15:31:27.944Z,7.75
2018-08-30T15:33:55.667Z,7.90
2018-08-30T15:36:23.254Z,7.67
2018-08-30T15:38:50.870Z,8.18
2018-08-30T15:41:18.728Z,7.63
2018-08-30T15:43:46.216Z,8.47
2018-08-30T15:46:13.832Z,7.90
2018-08-30T15:48:41.876Z,9.03
2018-08-30T15:51:09.540Z,9.10
2018-08-30T15:53:37.140Z,8.68
2018-08-30T15:56:05.114Z,9.10
2018-08-30T15:58:32.759Z,11.10
2018-08-30T16:01:00.395Z,8.57
2018-08-30T16:03:28.079Z,8.50
2018-08-30T16:05:55.712Z,8.80
2018-08-30T16:08:23.428Z,8.97
2018-08-30T16:10:51.100Z,8.38
2018-08-30T16:13:18.716Z,8.37
2018-08-30T16:15:46.418Z,8.75
2018-08-30T16:18:14.063Z,8.65
2018-08-30T16:20:41.715Z,9.40
2018-08-30T16:23:20.759Z,9.00
2018-08-30T16:25:48.383Z,8.17
2018-08-30T16:28:16.003Z,8.67
2018-08-30T16:30:43.688Z,8.60
2018-08-30T16:33:11.439Z,8.00
2018-08-30T16:35:39.106Z,8.40
2018-08-30T16:38:06.923Z,7.77
2018-08-30T16:40:34.602Z,8.07
2018-08-30T16:43:02.298Z,7.83
2018-08-30T16:45:30.121Z,8.85
2018-08-30T16:47:57.826Z,8.63
2018-08-30T16:50:25.549Z,7.92
2018-08-30T16:52:53.271Z,8.83
2018-08-30T16:55:20.956Z,8.63
2018-08-30T16:57:48.520Z,10.17
2018-08-30T17:00:16.189Z,8.45
2018-08-30T17:02:43.888Z,8.70
2018-08-30T17:05:11.493Z,9.23
2018-08-30T17:07:39.175Z,9.43
2018-08-30T17:10:06.903Z,9.10
2018-08-30T17:12:34.600Z,8.50
2018-08-30T17:15:02.430Z,9.50
2018-08-30T17:17:30.170Z,8.83
2018-08-30T17:19:57.855Z,8.83
2018-08-30T17:22:25.767Z,8.10
2018-08-30T17:24:53.502Z,8.25
2018-08-30T17:27:21.455Z,9.05
2018-08-30T17:29:49.222Z,9.03
2018-08-30T17:32:16.839Z,8.80
2018-08-30T17:34:44.674Z,9.03
2018-08-30T17:37:12.377Z,9.80
2018-08-30T17:39:40.184Z,8.27
2018-08-30T17:42:08.036Z,8.27
2018-08-30T17:44:35.705Z,7.83
2018-08-30T17:47:03.452Z,9.10
2018-08-30T17:49:31.072Z,7.72
2018-08-30T17:51:59.072Z,7.43
2018-08-30T17:54:26.817Z,7.77
2018-08-30T17:56:54.525Z,7.43
2018-08-30T17:59:22.202Z,8.25
2018-08-30T18:01:49.920Z,6.62
2018-08-30T18:04:17.628Z,7.83
2018-08-30T18:06:45.356Z,6.73
2018-08-30T18:09:13.336Z,6.27
2018-08-30T18:11:40.984Z,7.70
2018-08-30T18:14:08.721Z,9.53
2018-08-30T18:16:36.428Z,7.07
2018-08-30T18:19:04.151Z,7.10
2018-08-30T18:21:32.938Z,7.00
2018-08-30T18:24:00.586Z,7.60
2018-08-30T18:26:28.191Z,7.53
2018-08-30T18:28:55.977Z,6.90
2018-08-30T18:31:23.973Z,7.83
2018-08-30T18:33:51.661Z,7.93
2018-08-30T18:36:19.384Z,7.40
2018-08-30T18:38:47.147Z,14.23
2018-08-30T18:41:14.799Z,7.08
2018-08-30T18:43:42.515Z,7.57
2018-08-30T18:46:10.279Z,7.40
2018-08-30T18:48:37.917Z,7.43
2018-08-30T18:51:05.699Z,7.37
2018-08-30T18:53:33.403Z,6.40
2018-08-30T18:56:01.204Z,6.65
2018-08-30T18:58:28.997Z,7.10
2018-08-30T19:00:56.807Z,7.20
2018-08-30T19:03:24.459Z,7.17
2018-08-30T19:05:52.136Z,7.05
2018-08-30T19:08:19.867Z,7.67
2018-08-30T19:10:47.489Z,6.80
2018-08-30T19:13:15.164Z,7.20
2018-08-30T19:15:48.565Z,6.73
2018-08-30T19:18:21.850Z,7.00
2018-08-30T19:20:49.485Z,7.27
2018-08-30T19:23:17.096Z,7.10
2018-08-30T19:25:44.776Z,7.47
2018-08-30T19:28:12.543Z,7.23
2018-08-30T19:30:40.308Z,7.10
2018-08-30T19:33:08.188Z,6.87
2018-08-30T19:35:41.506Z,8.13
2018-08-30T19:38:09.495Z,7.90
2018-08-30T19:40:42.792Z,7.70
2018-08-30T19:43:10.572Z,8.20
2018-08-30T19:45:38.383Z,7.50
2018-08-30T19:48:06.318Z,8.10
2018-08-30T19:50:33.987Z,8.37
2018-08-30T19:53:01.645Z,8.90
2018-08-30T19:55:29.298Z,9.45
2018-08-30T19:57:57.409Z,9.77
2018-08-30T20:00:25.119Z,9.75
2018-08-30T20:02:52.853Z,9.90
2018-08-30T20:05:20.743Z,9.77
2018-08-30T20:07:48.371Z,8.83
2018-08-30T20:10:15.992Z,10.63
2018-08-30T20:12:43.671Z,10.20
2018-08-30T20:15:11.380Z,10.55
2018-08-30T20:17:39.045Z,10.13
2018-08-30T20:20:07.060Z,9.23
2018-08-30T20:22:34.952Z,9.87
2018-08-30T20:25:02.610Z,9.60
2018-08-30T20:27:30.283Z,10.07
2018-08-30T20:29:57.919Z,10.20
2018-08-30T20:32:25.537Z,9.03
2018-08-30T20:34:53.222Z,9.97
2018-08-30T20:37:20.926Z,9.30
2018-08-30T20:39:48.640Z,9.48
2018-08-30T20:42:16.302Z,9.15
2018-08-30T20:44:44.031Z,9.03
2018-08-30T20:47:11.720Z,7.67
2018-08-30T20:49:39.385Z,8.50
2018-08-30T20:52:07.484Z,8.30
2018-08-30T20:54:35.474Z,9.10
2018-08-30T20:57:03.314Z,8.60
2018-08-30T20:59:31.182Z,9.30
2018-08-30T21:01:58.859Z,8.37
2018-08-30T21:04:26.497Z,8.80
2018-08-30T21:06:54.401Z,8.30
2018-08-30T21:09:22.250Z,9.80
2018-08-30T21:11:49.953Z,9.53
2018-08-30T21:14:17.751Z,8.95
2018-08-30T21:16:45.365Z,8.55
2018-08-30T21:19:14.550Z,9.80
2018-08-30T21:21:42.168Z,8.73
2018-08-30T21:24:09.797Z,9.97
2018-08-30T21:26:38.344Z,9.50
2018-08-30T21:29:06.018Z,9.80
2018-08-30T21:31:34.271Z,8.70
2018-08-30T21:34:02.037Z,9.10
2018-08-30T21:36:29.778Z,9.57
2018-08-30T21:38:57.847Z,9.08
2018-08-30T21:41:25.799Z,9.47
2018-08-30T21:43:53.437Z,9.70
2018-08-30T21:46:21.222Z,9.63
2018-08-30T21:48:49.216Z,9.63
2018-08-30T21:51:17.141Z,9.83
2018-08-30T21:53:44.796Z,9.30
2018-08-30T21:56:12.667Z,9.53
2018-08-30T21:58:40.531Z,9.00
2018-08-30T22:01:08.177Z,8.40
2018-08-30T22:03:35.848Z,8.17
2018-08-30T22:06:03.987Z,8.83
2018-08-30T22:08:31.813Z,8.53
2018-08-30T22:10:59.487Z,9.53
2018-08-30T22:13:27.405Z,10.40
2018-08-30T22:15:55.494Z,9.63
2018-08-30T22:18:23.208Z,9.58
2018-08-30T22:20:51.046Z,9.73
2018-08-30T22:23:18.935Z,9.67
2018-08-30T22:25:46.933Z,8.97
2018-08-30T22:28:14.636Z,8.95
2018-08-30T22:30:42.287Z,8.53
2018-08-30T22:33:09.966Z,9.30
2018-08-30T22:35:37.621Z,9.10
2018-08-30T22:38:05.340Z,8.35
2018-08-30T22:40:33.053Z,8.95
2018-08-30T22:43:00.722Z,8.10
2018-08-30T22:45:28.392Z,8.80
2018-08-30T22:47:56.111Z,9.13
2018-08-30T22:50:23.824Z,9.47
2018-08-30T22:52:51.458Z,9.35
2018-08-30T22:55:19.162Z,9.03
2018-08-30T22:57:46.931Z,9.17
2018-08-30T23:00:14.490Z,8.63
2018-08-30T23:02:42.175Z,8.65
2018-08-30T23:05:09.850Z,9.27
2018-08-30T23:07:37.498Z,8.23
2018-08-30T23:10:05.387Z,9.73
2018-08-30T23:12:34.029Z,10.03
2018-08-30T23:15:01.706Z,12.43
2018-08-30T23:17:29.655Z,11.15
2018-08-30T23:19:57.329Z,12.85
2018-08-30T23:22:24.992Z,11.93
2018-08-30T23:24:52.659Z,9.87
2018-08-30T23:27:20.295Z,9.73
2018-08-30T23:29:47.990Z,9.85
2018-08-30T23:32:15.679Z,10.08
2018-08-30T23:34:43.355Z,9.50
2018-08-30T23:37:11.051Z,9.50
2018-08-30T23:39:38.841Z,10.57
2018-08-30T23:42:06.485Z,9.77
2018-08-30T23:44:34.110Z,11.15
2018-08-30T23:47:01.773Z,8.43
2018-08-30T23:49:29.406Z,8.33
2018-08-30T23:51:57.021Z,8.28
2018-08-30T23:54:24.690Z,8.53
2018-08-30T23:56:52.289Z,7.40
2018-08-30T23:59:31.041Z,7.40
